sensor_id;sensor_type;location;lat;lon;timestamp;temperature;humidity
27072;DHT22;14613;46.308;25.288;2023-03-14T00:01:48;2.80;63.40
27072;DHT22;14613;46.308;25.288;2023-03-14T00:04:14;2.80;63.50
27072;DHT22;14613;46.308;25.288;2023-03-14T00:06:40;2.80;63.60
27072;DHT22;14613;46.308;25.288;2023-03-14T00:09:06;2.80;63.60
27072;DHT22;14613;46.308;25.288;2023-03-14T00:11:32;2.80;63.60
27072;DHT22;14613;46.308;25.288;2023-03-14T00:13:58;2.70;63.60
27072;DHT22;14613;46.308;25.288;2023-03-14T00:16:25;2.70;63.50
27072;DHT22;14613;46.308;25.288;2023-03-14T00:18:51;2.70;63.60
27072;DHT22;14613;46.308;25.288;2023-03-14T00:21:16;2.70;63.60
27072;DHT22;14613;46.308;25.288;2023-03-14T00:23:42;2.70;63.60
27072;DHT22;14613;46.308;25.288;2023-03-14T00:26:09;2.80;63.70
27072;DHT22;14613;46.308;25.288;2023-03-14T00:28:36;2.80;63.70
27072;DHT22;14613;46.308;25.288;2023-03-14T00:31:03;2.80;63.70
27072;DHT22;14613;46.308;25.288;2023-03-14T00:33:29;2.80;63.60
27072;DHT22;14613;46.308;25.288;2023-03-14T00:36:03;2.80;63.60
27072;DHT22;14613;46.308;25.288;2023-03-14T00:38:31;2.80;63.50
27072;DHT22;14613;46.308;25.288;2023-03-14T00:40:58;2.80;63.50
27072;DHT22;14613;46.308;25.288;2023-03-14T00:43:24;2.80;63.60
27072;DHT22;14613;46.308;25.288;2023-03-14T00:46:10;2.70;63.60
27072;DHT22;14613;46.308;25.288;2023-03-14T00:48:38;2.60;63.90
27072;DHT22;14613;46.308;25.288;2023-03-14T00:51:07;2.60;64.10
27072;DHT22;14613;46.308;25.288;2023-03-14T00:53:38;2.50;64.30
27072;DHT22;14613;46.308;25.288;2023-03-14T00:56:05;2.50;64.40
27072;DHT22;14613;46.308;25.288;2023-03-14T00:58:31;2.50;64.50
27072;DHT22;14613;46.308;25.288;2023-03-14T01:00:57;2.50;64.50
27072;DHT22;14613;46.308;25.288;2023-03-14T01:03:23;2.50;64.50
27072;DHT22;14613;46.308;25.288;2023-03-14T01:05:49;2.50;64.50
27072;DHT22;14613;46.308;25.288;2023-03-14T01:08:19;2.50;64.50
27072;DHT22;14613;46.308;25.288;2023-03-14T01:10:44;2.60;64.60
27072;DHT22;14613;46.308;25.288;2023-03-14T01:13:10;2.60;64.50
27072;DHT22;14613;46.308;25.288;2023-03-14T01:15:51;2.60;64.50
27072;DHT22;14613;46.308;25.288;2023-03-14T01:18:20;2.60;64.50
27072;DHT22;14613;46.308;25.288;2023-03-14T01:20:59;2.70;64.50
27072;DHT22;14613;46.308;25.288;2023-03-14T01:23:45;2.60;64.30
27072;DHT22;14613;46.308;25.288;2023-03-14T01:26:13;2.60;64.50
27072;DHT22;14613;46.308;25.288;2023-03-14T01:28:58;2.60;64.50
27072;DHT22;14613;46.308;25.288;2023-03-14T01:31:25;2.60;64.70
27072;DHT22;14613;46.308;25.288;2023-03-14T01:33:51;2.60;64.60
27072;DHT22;14613;46.308;25.288;2023-03-14T01:36:16;2.60;64.80
27072;DHT22;14613;46.308;25.288;2023-03-14T01:38:43;2.50;64.80
27072;DHT22;14613;46.308;25.288;2023-03-14T01:41:14;2.50;65.00
27072;DHT22;14613;46.308;25.288;2023-03-14T01:43:41;2.40;65.10
27072;DHT22;14613;46.308;25.288;2023-03-14T01:51:26;2.40;65.50
27072;DHT22;14613;46.308;25.288;2023-03-14T01:53:54;2.30;65.50
27072;DHT22;14613;46.308;25.288;2023-03-14T01:56:22;2.30;65.50
27072;DHT22;14613;46.308;25.288;2023-03-14T01:58:50;2.40;65.60
27072;DHT22;14613;46.308;25.288;2023-03-14T02:01:20;2.40;65.60
27072;DHT22;14613;46.308;25.288;2023-03-14T02:03:53;2.40;65.50
27072;DHT22;14613;46.308;25.288;2023-03-14T02:06:25;2.30;65.40
27072;DHT22;14613;46.308;25.288;2023-03-14T02:08:52;2.30;65.60
27072;DHT22;14613;46.308;25.288;2023-03-14T02:11:19;2.30;65.60
27072;DHT22;14613;46.308;25.288;2023-03-14T02:13:45;2.30;65.70
27072;DHT22;14613;46.308;25.288;2023-03-14T02:17:00;2.30;65.70
27072;DHT22;14613;46.308;25.288;2023-03-14T02:19:20;2.30;66.60
27072;DHT22;14613;46.308;25.288;2023-03-14T02:22:13;2.30;65.80
27072;DHT22;14613;46.308;25.288;2023-03-14T02:24:56;2.30;65.90
27072;DHT22;14613;46.308;25.288;2023-03-14T02:27:23;2.30;65.90
27072;DHT22;14613;46.308;25.288;2023-03-14T02:29:54;2.40;65.90
27072;DHT22;14613;46.308;25.288;2023-03-14T02:32:22;2.40;65.90
27072;DHT22;14613;46.308;25.288;2023-03-14T02:34:52;2.40;65.90
27072;DHT22;14613;46.308;25.288;2023-03-14T02:37:21;2.40;65.90
27072;DHT22;14613;46.308;25.288;2023-03-14T02:39:47;2.40;66.00
27072;DHT22;14613;46.308;25.288;2023-03-14T02:42:14;2.30;65.90
27072;DHT22;14613;46.308;25.288;2023-03-14T02:47:34;2.40;66.10
27072;DHT22;14613;46.308;25.288;2023-03-14T02:50:06;2.40;66.10
27072;DHT22;14613;46.308;25.288;2023-03-14T02:52:33;2.50;66.20
27072;DHT22;14613;46.308;25.288;2023-03-14T02:54:59;2.50;66.00
27072;DHT22;14613;46.308;25.288;2023-03-14T02:57:25;2.50;66.20
27072;DHT22;14613;46.308;25.288;2023-03-14T02:59:51;2.50;65.90
27072;DHT22;14613;46.308;25.288;2023-03-14T03:02:17;2.60;66.00
27072;DHT22;14613;46.308;25.288;2023-03-14T03:04:43;2.60;66.00
27072;DHT22;14613;46.308;25.288;2023-03-14T03:07:08;2.70;66.00
27072;DHT22;14613;46.308;25.288;2023-03-14T03:09:34;2.70;66.80
27072;DHT22;14613;46.308;25.288;2023-03-14T03:12:00;2.70;66.00
27072;DHT22;14613;46.308;25.288;2023-03-14T03:14:26;2.70;66.00
27072;DHT22;14613;46.308;25.288;2023-03-14T03:16:52;2.70;66.00
27072;DHT22;14613;46.308;25.288;2023-03-14T03:19:17;2.70;65.90
27072;DHT22;14613;46.308;25.288;2023-03-14T03:21:44;2.80;65.80
27072;DHT22;14613;46.308;25.288;2023-03-14T03:24:09;2.80;65.80
27072;DHT22;14613;46.308;25.288;2023-03-14T03:26:36;2.70;65.80
27072;DHT22;14613;46.308;25.288;2023-03-14T03:29:02;2.80;65.90
27072;DHT22;14613;46.308;25.288;2023-03-14T03:31:28;2.70;65.90
27072;DHT22;14613;46.308;25.288;2023-03-14T03:33:54;2.70;66.00
27072;DHT22;14613;46.308;25.288;2023-03-14T03:36:24;2.80;66.20
27072;DHT22;14613;46.308;25.288;2023-03-14T03:38:50;2.80;66.20
27072;DHT22;14613;46.308;25.288;2023-03-14T03:41:16;2.80;66.20
27072;DHT22;14613;46.308;25.288;2023-03-14T03:43:42;2.80;66.20
27072;DHT22;14613;46.308;25.288;2023-03-14T03:46:08;2.80;66.20
27072;DHT22;14613;46.308;25.288;2023-03-14T03:48:34;2.80;66.20
27072;DHT22;14613;46.308;25.288;2023-03-14T03:51:00;2.90;66.30
27072;DHT22;14613;46.308;25.288;2023-03-14T03:53:27;2.80;66.20
27072;DHT22;14613;46.308;25.288;2023-03-14T03:55:53;2.90;66.30
27072;DHT22;14613;46.308;25.288;2023-03-14T03:58:19;2.90;66.30
27072;DHT22;14613;46.308;25.288;2023-03-14T04:00:45;2.90;66.30
27072;DHT22;14613;46.308;25.288;2023-03-14T04:03:11;2.90;66.40
27072;DHT22;14613;46.308;25.288;2023-03-14T04:05:36;2.90;66.40
27072;DHT22;14613;46.308;25.288;2023-03-14T04:08:03;2.90;66.40
27072;DHT22;14613;46.308;25.288;2023-03-14T04:10:29;2.90;66.40
27072;DHT22;14613;46.308;25.288;2023-03-14T04:12:55;3.00;66.50
27072;DHT22;14613;46.308;25.288;2023-03-14T04:15:21;3.00;66.60
27072;DHT22;14613;46.308;25.288;2023-03-14T04:17:46;3.00;66.60
27072;DHT22;14613;46.308;25.288;2023-03-14T04:20:12;3.00;66.60
27072;DHT22;14613;46.308;25.288;2023-03-14T04:22:39;3.00;66.60
27072;DHT22;14613;46.308;25.288;2023-03-14T04:25:05;3.00;66.60
27072;DHT22;14613;46.308;25.288;2023-03-14T04:27:31;3.00;66.60
27072;DHT22;14613;46.308;25.288;2023-03-14T04:29:57;3.00;66.60
27072;DHT22;14613;46.308;25.288;2023-03-14T04:32:23;3.00;66.60
27072;DHT22;14613;46.308;25.288;2023-03-14T04:34:49;3.00;66.70
27072;DHT22;14613;46.308;25.288;2023-03-14T04:37:15;3.00;66.80
27072;DHT22;14613;46.308;25.288;2023-03-14T04:39:41;3.00;66.90
27072;DHT22;14613;46.308;25.288;2023-03-14T04:42:06;3.00;67.80
27072;DHT22;14613;46.308;25.288;2023-03-14T04:44:32;3.00;67.00
27072;DHT22;14613;46.308;25.288;2023-03-14T04:46:58;3.00;67.10
27072;DHT22;14613;46.308;25.288;2023-03-14T04:49:24;3.00;67.10
27072;DHT22;14613;46.308;25.288;2023-03-14T04:51:50;3.00;67.20
27072;DHT22;14613;46.308;25.288;2023-03-14T04:54:18;3.10;67.40
27072;DHT22;14613;46.308;25.288;2023-03-14T04:56:44;3.10;67.50
27072;DHT22;14613;46.308;25.288;2023-03-14T04:59:10;3.10;67.50
27072;DHT22;14613;46.308;25.288;2023-03-14T05:01:36;3.20;67.50
27072;DHT22;14613;46.308;25.288;2023-03-14T05:04:01;3.20;67.50
27072;DHT22;14613;46.308;25.288;2023-03-14T05:06:27;3.30;67.50
27072;DHT22;14613;46.308;25.288;2023-03-14T05:08:53;3.40;67.60
27072;DHT22;14613;46.308;25.288;2023-03-14T05:11:19;3.50;67.70
27072;DHT22;14613;46.308;25.288;2023-03-14T05:13:44;3.60;67.80
27072;DHT22;14613;46.308;25.288;2023-03-14T05:16:10;3.80;67.90
27072;DHT22;14613;46.308;25.288;2023-03-14T05:18:37;3.90;67.90
27072;DHT22;14613;46.308;25.288;2023-03-14T05:21:03;4.00;67.80
27072;DHT22;14613;46.308;25.288;2023-03-14T05:23:29;4.20;67.90
27072;DHT22;14613;46.308;25.288;2023-03-14T05:25:55;4.40;68.20
27072;DHT22;14613;46.308;25.288;2023-03-14T05:28:21;4.70;68.30
27072;DHT22;14613;46.308;25.288;2023-03-14T05:30:47;5.00;68.40
27072;DHT22;14613;46.308;25.288;2023-03-14T05:33:13;5.30;68.30
27072;DHT22;14613;46.308;25.288;2023-03-14T05:35:39;5.60;68.10
27072;DHT22;14613;46.308;25.288;2023-03-14T05:38:05;5.90;68.10
27072;DHT22;14613;46.308;25.288;2023-03-14T05:40:30;6.20;68.00
27072;DHT22;14613;46.308;25.288;2023-03-14T05:42:56;6.60;68.00
27072;DHT22;14613;46.308;25.288;2023-03-14T05:45:22;7.00;67.60
27072;DHT22;14613;46.308;25.288;2023-03-14T05:47:48;7.20;67.00
27072;DHT22;14613;46.308;25.288;2023-03-14T05:50:13;7.50;66.70
27072;DHT22;14613;46.308;25.288;2023-03-14T05:52:39;7.60;66.10
27072;DHT22;14613;46.308;25.288;2023-03-14T05:55:05;7.70;65.90
27072;DHT22;14613;46.308;25.288;2023-03-14T05:57:31;7.80;65.70
27072;DHT22;14613;46.308;25.288;2023-03-14T05:59:57;7.90;65.50
27072;DHT22;14613;46.308;25.288;2023-03-14T06:02:23;8.00;65.40
27072;DHT22;14613;46.308;25.288;2023-03-14T06:04:48;8.10;65.30
27072;DHT22;14613;46.308;25.288;2023-03-14T06:07:14;8.20;65.20
27072;DHT22;14613;46.308;25.288;2023-03-14T06:09:40;8.40;65.20
27072;DHT22;14613;46.308;25.288;2023-03-14T06:12:06;8.60;65.00
27072;DHT22;14613;46.308;25.288;2023-03-14T06:14:32;8.70;64.60
27072;DHT22;14613;46.308;25.288;2023-03-14T06:16:57;8.80;64.30
27072;DHT22;14613;46.308;25.288;2023-03-14T06:19:25;8.90;64.20
27072;DHT22;14613;46.308;25.288;2023-03-14T06:21:51;9.00;63.90
27072;DHT22;14613;46.308;25.288;2023-03-14T06:24:17;9.10;63.90
27072;DHT22;14613;46.308;25.288;2023-03-14T06:26:43;9.30;64.00
27072;DHT22;14613;46.308;25.288;2023-03-14T06:29:09;9.50;63.80
27072;DHT22;14613;46.308;25.288;2023-03-14T06:31:35;9.70;64.20
27072;DHT22;14613;46.308;25.288;2023-03-14T06:34:01;9.80;63.10
27072;DHT22;14613;46.308;25.288;2023-03-14T06:36:27;10.00;62.80
27072;DHT22;14613;46.308;25.288;2023-03-14T06:38:53;10.10;62.40
27072;DHT22;14613;46.308;25.288;2023-03-14T06:41:19;10.20;62.10
27072;DHT22;14613;46.308;25.288;2023-03-14T06:43:44;10.20;62.10
27072;DHT22;14613;46.308;25.288;2023-03-14T06:46:10;10.30;61.90
27072;DHT22;14613;46.308;25.288;2023-03-14T06:48:36;10.50;61.70
27072;DHT22;14613;46.308;25.288;2023-03-14T06:51:02;10.60;61.70
27072;DHT22;14613;46.308;25.288;2023-03-14T06:53:28;10.70;61.50
27072;DHT22;14613;46.308;25.288;2023-03-14T06:55:54;10.90;61.30
27072;DHT22;14613;46.308;25.288;2023-03-14T06:58:20;11.00;60.90
27072;DHT22;14613;46.308;25.288;2023-03-14T07:00:46;11.10;60.80
27072;DHT22;14613;46.308;25.288;2023-03-14T07:03:13;11.20;60.80
27072;DHT22;14613;46.308;25.288;2023-03-14T07:05:39;11.40;60.40
27072;DHT22;14613;46.308;25.288;2023-03-14T07:08:07;11.60;60.20
27072;DHT22;14613;46.308;25.288;2023-03-14T07:10:33;11.80;60.00
27072;DHT22;14613;46.308;25.288;2023-03-14T07:12:58;12.00;59.70
27072;DHT22;14613;46.308;25.288;2023-03-14T07:15:24;12.10;59.20
27072;DHT22;14613;46.308;25.288;2023-03-14T07:17:50;12.30;59.20
27072;DHT22;14613;46.308;25.288;2023-03-14T07:20:16;12.40;59.10
27072;DHT22;14613;46.308;25.288;2023-03-14T07:22:42;12.60;58.90
27072;DHT22;14613;46.308;25.288;2023-03-14T07:25:08;12.70;58.80
27072;DHT22;14613;46.308;25.288;2023-03-14T07:27:37;12.90;58.60
27072;DHT22;14613;46.308;25.288;2023-03-14T07:30:03;13.10;58.40
27072;DHT22;14613;46.308;25.288;2023-03-14T07:32:30;13.40;58.40
27072;DHT22;14613;46.308;25.288;2023-03-14T07:34:55;13.60;58.10
27072;DHT22;14613;46.308;25.288;2023-03-14T07:37:21;13.90;57.90
27072;DHT22;14613;46.308;25.288;2023-03-14T07:39:47;14.10;57.60
27072;DHT22;14613;46.308;25.288;2023-03-14T07:42:13;14.30;57.20
27072;DHT22;14613;46.308;25.288;2023-03-14T07:44:39;14.50;56.90
27072;DHT22;14613;46.308;25.288;2023-03-14T07:47:04;14.60;56.70
27072;DHT22;14613;46.308;25.288;2023-03-14T07:49:30;14.80;56.60
27072;DHT22;14613;46.308;25.288;2023-03-14T07:51:56;15.00;56.50
27072;DHT22;14613;46.308;25.288;2023-03-14T07:54:22;15.20;56.20
27072;DHT22;14613;46.308;25.288;2023-03-14T07:56:49;15.40;56.10
27072;DHT22;14613;46.308;25.288;2023-03-14T07:59:14;15.60;56.00
27072;DHT22;14613;46.308;25.288;2023-03-14T08:01:40;15.80;55.80
27072;DHT22;14613;46.308;25.288;2023-03-14T08:04:06;16.00;55.60
27072;DHT22;14613;46.308;25.288;2023-03-14T08:06:32;16.20;55.40
27072;DHT22;14613;46.308;25.288;2023-03-14T08:08:57;16.30;55.10
27072;DHT22;14613;46.308;25.288;2023-03-14T08:11:23;16.50;54.70
27072;DHT22;14613;46.308;25.288;2023-03-14T08:13:49;16.60;54.40
27072;DHT22;14613;46.308;25.288;2023-03-14T08:16:16;16.70;54.10
27072;DHT22;14613;46.308;25.288;2023-03-14T08:18:43;16.70;53.60
27072;DHT22;14613;46.308;25.288;2023-03-14T08:21:09;16.80;53.50
27072;DHT22;14613;46.308;25.288;2023-03-14T08:23:35;16.80;53.40
27072;DHT22;14613;46.308;25.288;2023-03-14T08:26:00;17.00;53.40
27072;DHT22;14613;46.308;25.288;2023-03-14T08:28:26;17.20;53.30
27072;DHT22;14613;46.308;25.288;2023-03-14T08:30:58;17.30;53.20
27072;DHT22;14613;46.308;25.288;2023-03-14T08:33:25;17.50;53.20
27072;DHT22;14613;46.308;25.288;2023-03-14T08:35:52;17.60;53.00
27072;DHT22;14613;46.308;25.288;2023-03-14T08:38:18;17.70;52.90
27072;DHT22;14613;46.308;25.288;2023-03-14T08:40:44;17.80;52.70
27072;DHT22;14613;46.308;25.288;2023-03-14T08:43:10;18.00;52.10
27072;DHT22;14613;46.308;25.288;2023-03-14T08:45:36;18.00;52.00
27072;DHT22;14613;46.308;25.288;2023-03-14T08:48:02;18.10;51.90
27072;DHT22;14613;46.308;25.288;2023-03-14T08:50:28;18.20;51.60
27072;DHT22;14613;46.308;25.288;2023-03-14T08:52:54;18.30;51.20
27072;DHT22;14613;46.308;25.288;2023-03-14T08:55:20;18.30;50.90
27072;DHT22;14613;46.308;25.288;2023-03-14T08:57:46;18.30;50.40
27072;DHT22;14613;46.308;25.288;2023-03-14T09:00:12;18.20;49.90
27072;DHT22;14613;46.308;25.288;2023-03-14T09:02:43;18.20;50.10
27072;DHT22;14613;46.308;25.288;2023-03-14T09:05:09;18.30;50.20
27072;DHT22;14613;46.308;25.288;2023-03-14T09:07:36;18.40;49.50
27072;DHT22;14613;46.308;25.288;2023-03-14T09:10:02;18.40;49.20
27072;DHT22;14613;46.308;25.288;2023-03-14T09:12:28;18.40;48.90
27072;DHT22;14613;46.308;25.288;2023-03-14T09:14:53;18.60;49.10
27072;DHT22;14613;46.308;25.288;2023-03-14T09:17:19;18.70;48.80
27072;DHT22;14613;46.308;25.288;2023-03-14T09:19:45;18.80;48.50
27072;DHT22;14613;46.308;25.288;2023-03-14T09:22:11;19.00;48.50
27072;DHT22;14613;46.308;25.288;2023-03-14T09:24:36;19.10;48.10
27072;DHT22;14613;46.308;25.288;2023-03-14T09:27:02;19.10;47.60
27072;DHT22;14613;46.308;25.288;2023-03-14T09:29:28;19.20;47.80
27072;DHT22;14613;46.308;25.288;2023-03-14T09:31:54;19.40;47.80
27072;DHT22;14613;46.308;25.288;2023-03-14T09:34:20;19.60;47.70
27072;DHT22;14613;46.308;25.288;2023-03-14T09:36:45;19.70;47.20
27072;DHT22;14613;46.308;25.288;2023-03-14T09:39:12;19.70;46.40
27072;DHT22;14613;46.308;25.288;2023-03-14T09:41:41;19.60;46.10
27072;DHT22;14613;46.308;25.288;2023-03-14T09:44:18;19.70;45.60
27072;DHT22;14613;46.308;25.288;2023-03-14T09:46:49;19.70;45.50
27072;DHT22;14613;46.308;25.288;2023-03-14T09:51:52;19.90;45.40
27072;DHT22;14613;46.308;25.288;2023-03-14T09:54:49;20.00;45.40
27072;DHT22;14613;46.308;25.288;2023-03-14T09:57:21;20.20;45.30
27072;DHT22;14613;46.308;25.288;2023-03-14T09:59:49;20.30;45.20
27072;DHT22;14613;46.308;25.288;2023-03-14T10:02:21;20.40;45.20
27072;DHT22;14613;46.308;25.288;2023-03-14T10:04:49;20.50;45.00
27072;DHT22;14613;46.308;25.288;2023-03-14T10:07:18;20.60;45.10
27072;DHT22;14613;46.308;25.288;2023-03-14T10:09:49;20.80;44.90
27072;DHT22;14613;46.308;25.288;2023-03-14T10:12:16;20.80;44.30
27072;DHT22;14613;46.308;25.288;2023-03-14T10:14:51;20.80;44.20
27072;DHT22;14613;46.308;25.288;2023-03-14T10:17:18;20.90;44.40
27072;DHT22;14613;46.308;25.288;2023-03-14T10:19:59;20.90;44.20
27072;DHT22;14613;46.308;25.288;2023-03-14T10:22:29;20.90;44.10
27072;DHT22;14613;46.308;25.288;2023-03-14T10:25:00;20.90;43.90
27072;DHT22;14613;46.308;25.288;2023-03-14T10:27:34;21.00;44.00
27072;DHT22;14613;46.308;25.288;2023-03-14T10:30:02;20.90;44.00
27072;DHT22;14613;46.308;25.288;2023-03-14T10:32:36;20.90;44.20
27072;DHT22;14613;46.308;25.288;2023-03-14T10:37:57;20.80;44.10
27072;DHT22;14613;46.308;25.288;2023-03-14T10:40:37;20.80;44.60
27072;DHT22;14613;46.308;25.288;2023-03-14T10:43:06;20.90;43.70
27072;DHT22;14613;46.308;25.288;2023-03-14T10:45:36;21.00;43.60
27072;DHT22;14613;46.308;25.288;2023-03-14T10:48:35;21.00;43.40
27072;DHT22;14613;46.308;25.288;2023-03-14T10:53:49;21.00;43.60
27072;DHT22;14613;46.308;25.288;2023-03-14T10:56:19;21.20;43.70
27072;DHT22;14613;46.308;25.288;2023-03-14T10:58:50;21.20;42.60
27072;DHT22;14613;46.308;25.288;2023-03-14T11:18:12;21.10;42.90
27072;DHT22;14613;46.308;25.288;2023-03-14T11:26:28;21.00;42.60
27072;DHT22;14613;46.308;25.288;2023-03-14T11:28:58;20.90;42.70
27072;DHT22;14613;46.308;25.288;2023-03-14T11:31:29;20.80;42.60
27072;DHT22;14613;46.308;25.288;2023-03-14T11:36:48;20.90;42.60
27072;DHT22;14613;46.308;25.288;2023-03-14T11:39:19;21.00;42.50
27072;DHT22;14613;46.308;25.288;2023-03-14T11:41:52;21.20;42.00
27072;DHT22;14613;46.308;25.288;2023-03-14T11:47:10;21.40;41.90
27072;DHT22;14613;46.308;25.288;2023-03-14T11:49:53;21.50;41.40
27072;DHT22;14613;46.308;25.288;2023-03-14T11:52:28;21.60;41.10
27072;DHT22;14613;46.308;25.288;2023-03-14T11:57:24;21.70;39.90
27072;DHT22;14613;46.308;25.288;2023-03-14T12:00:16;21.80;40.20
27072;DHT22;14613;46.308;25.288;2023-03-14T12:13:48;22.10;40.70
27072;DHT22;14613;46.308;25.288;2023-03-14T12:18:50;22.20;40.90
27072;DHT22;14613;46.308;25.288;2023-03-14T12:21:17;22.20;40.90
27072;DHT22;14613;46.308;25.288;2023-03-14T12:23:52;22.20;40.70
27072;DHT22;14613;46.308;25.288;2023-03-14T12:42:04;21.70;41.50
27072;DHT22;14613;46.308;25.288;2023-03-14T12:49:53;21.80;41.10
27072;DHT22;14613;46.308;25.288;2023-03-14T12:52:38;21.80;41.10
27072;DHT22;14613;46.308;25.288;2023-03-14T13:00:32;21.80;41.10
27072;DHT22;14613;46.308;25.288;2023-03-14T13:03:21;21.80;41.10
27072;DHT22;14613;46.308;25.288;2023-03-14T13:05:58;21.90;40.90
27072;DHT22;14613;46.308;25.288;2023-03-14T13:08:40;21.80;40.80
27072;DHT22;14613;46.308;25.288;2023-03-14T13:11:19;21.80;40.90
27072;DHT22;14613;46.308;25.288;2023-03-14T13:13:56;21.80;40.90
27072;DHT22;14613;46.308;25.288;2023-03-14T13:16:22;21.80;41.00
27072;DHT22;14613;46.308;25.288;2023-03-14T13:19:11;21.80;41.10
27072;DHT22;14613;46.308;25.288;2023-03-14T13:21:37;21.80;41.20
27072;DHT22;14613;46.308;25.288;2023-03-14T13:24:06;21.70;41.10
27072;DHT22;14613;46.308;25.288;2023-03-14T13:26:41;21.60;40.50
27072;DHT22;14613;46.308;25.288;2023-03-14T13:29:24;21.50;40.20
27072;DHT22;14613;46.308;25.288;2023-03-14T13:31:56;21.40;40.20
27072;DHT22;14613;46.308;25.288;2023-03-14T13:34:28;21.30;40.50
27072;DHT22;14613;46.308;25.288;2023-03-14T13:36:55;21.20;40.50
27072;DHT22;14613;46.308;25.288;2023-03-14T13:39:23;21.20;40.40
27072;DHT22;14613;46.308;25.288;2023-03-14T13:41:51;21.20;40.40
27072;DHT22;14613;46.308;25.288;2023-03-14T13:44:31;21.10;40.40
27072;DHT22;14613;46.308;25.288;2023-03-14T13:47:02;21.10;40.40
27072;DHT22;14613;46.308;25.288;2023-03-14T13:49:30;21.20;40.40
27072;DHT22;14613;46.308;25.288;2023-03-14T13:51:58;21.30;40.20
27072;DHT22;14613;46.308;25.288;2023-03-14T13:54:26;21.20;39.60
27072;DHT22;14613;46.308;25.288;2023-03-14T13:57:02;21.20;39.50
27072;DHT22;14613;46.308;25.288;2023-03-14T13:59:30;21.10;39.60
27072;DHT22;14613;46.308;25.288;2023-03-14T14:01:58;21.10;39.60
27072;DHT22;14613;46.308;25.288;2023-03-14T14:04:25;21.00;39.10
27072;DHT22;14613;46.308;25.288;2023-03-14T14:07:07;21.00;39.70
27072;DHT22;14613;46.308;25.288;2023-03-14T14:09:42;21.00;38.90
27072;DHT22;14613;46.308;25.288;2023-03-14T14:15:15;21.00;38.30
27072;DHT22;14613;46.308;25.288;2023-03-14T14:17:49;21.10;38.40
27072;DHT22;14613;46.308;25.288;2023-03-14T14:20:31;21.10;38.60
27072;DHT22;14613;46.308;25.288;2023-03-14T14:23:05;21.10;38.50
27072;DHT22;14613;46.308;25.288;2023-03-14T14:25:32;21.10;38.10
27072;DHT22;14613;46.308;25.288;2023-03-14T14:27:59;21.10;37.20
27072;DHT22;14613;46.308;25.288;2023-03-14T14:30:32;21.10;37.20
27072;DHT22;14613;46.308;25.288;2023-03-14T14:33:21;21.20;37.50
27072;DHT22;14613;46.308;25.288;2023-03-14T14:35:57;21.20;36.90
27072;DHT22;14613;46.308;25.288;2023-03-14T14:38:24;21.30;36.40
27072;DHT22;14613;46.308;25.288;2023-03-14T14:40:53;21.20;36.00
27072;DHT22;14613;46.308;25.288;2023-03-14T14:43:22;21.20;35.90
27072;DHT22;14613;46.308;25.288;2023-03-14T14:45:54;21.20;36.60
27072;DHT22;14613;46.308;25.288;2023-03-14T14:48:26;21.10;35.40
27072;DHT22;14613;46.308;25.288;2023-03-14T14:51:04;21.00;35.40
27072;DHT22;14613;46.308;25.288;2023-03-14T14:53:42;21.00;35.60
27072;DHT22;14613;46.308;25.288;2023-03-14T14:56:20;20.80;35.30
27072;DHT22;14613;46.308;25.288;2023-03-14T14:58:48;20.80;35.40
27072;DHT22;14613;46.308;25.288;2023-03-14T15:01:18;20.70;35.50
27072;DHT22;14613;46.308;25.288;2023-03-14T15:03:46;20.60;35.60
27072;DHT22;14613;46.308;25.288;2023-03-14T15:06:14;20.60;35.80
27072;DHT22;14613;46.308;25.288;2023-03-14T15:08:43;20.50;35.90
27072;DHT22;14613;46.308;25.288;2023-03-14T15:11:18;20.30;36.00
27072;DHT22;14613;46.308;25.288;2023-03-14T15:13:44;20.20;36.10
27072;DHT22;14613;46.308;25.288;2023-03-14T15:16:16;20.00;35.90
27072;DHT22;14613;46.308;25.288;2023-03-14T15:18:42;19.80;35.90
27072;DHT22;14613;46.308;25.288;2023-03-14T15:21:10;19.70;36.00
27072;DHT22;14613;46.308;25.288;2023-03-14T15:23:35;19.60;36.20
27072;DHT22;14613;46.308;25.288;2023-03-14T15:26:01;19.50;36.40
27072;DHT22;14613;46.308;25.288;2023-03-14T15:28:29;19.30;36.60
27072;DHT22;14613;46.308;25.288;2023-03-14T15:30:57;19.20;36.70
27072;DHT22;14613;46.308;25.288;2023-03-14T15:33:25;19.10;36.70
27072;DHT22;14613;46.308;25.288;2023-03-14T15:35:51;19.00;36.60
27072;DHT22;14613;46.308;25.288;2023-03-14T15:38:20;18.90;36.30
27072;DHT22;14613;46.308;25.288;2023-03-14T15:40:48;18.80;36.30
27072;DHT22;14613;46.308;25.288;2023-03-14T15:43:14;18.70;36.40
27072;DHT22;14613;46.308;25.288;2023-03-14T15:45:40;18.60;36.60
27072;DHT22;14613;46.308;25.288;2023-03-14T15:48:17;18.50;36.90
27072;DHT22;14613;46.308;25.288;2023-03-14T15:50:43;18.30;37.00
27072;DHT22;14613;46.308;25.288;2023-03-14T15:53:10;18.30;37.20
27072;DHT22;14613;46.308;25.288;2023-03-14T15:55:36;18.20;37.40
27072;DHT22;14613;46.308;25.288;2023-03-14T15:58:01;18.10;37.40
27072;DHT22;14613;46.308;25.288;2023-03-14T16:00:28;18.00;37.50
27072;DHT22;14613;46.308;25.288;2023-03-14T16:02:54;18.00;37.50
27072;DHT22;14613;46.308;25.288;2023-03-14T16:05:20;17.90;37.70
27072;DHT22;14613;46.308;25.288;2023-03-14T16:07:46;17.80;37.90
27072;DHT22;14613;46.308;25.288;2023-03-14T16:10:14;17.80;38.00
27072;DHT22;14613;46.308;25.288;2023-03-14T16:12:40;17.60;37.90
27072;DHT22;14613;46.308;25.288;2023-03-14T16:15:07;17.60;38.30
27072;DHT22;14613;46.308;25.288;2023-03-14T16:17:33;17.50;37.60
27072;DHT22;14613;46.308;25.288;2023-03-14T16:19:59;17.40;37.20
27072;DHT22;14613;46.308;25.288;2023-03-14T16:22:25;17.30;37.20
27072;DHT22;14613;46.308;25.288;2023-03-14T16:24:51;17.30;37.50
27072;DHT22;14613;46.308;25.288;2023-03-14T16:27:17;17.30;38.30
27072;DHT22;14613;46.308;25.288;2023-03-14T16:29:43;17.20;37.70
27072;DHT22;14613;46.308;25.288;2023-03-14T16:32:09;17.10;37.70
27072;DHT22;14613;46.308;25.288;2023-03-14T16:34:38;17.10;37.90
27072;DHT22;14613;46.308;25.288;2023-03-14T16:37:07;17.10;38.10
27072;DHT22;14613;46.308;25.288;2023-03-14T16:39:33;17.00;38.10
27072;DHT22;14613;46.308;25.288;2023-03-14T16:41:58;17.00;38.10
27072;DHT22;14613;46.308;25.288;2023-03-14T16:44:24;16.90;38.20
27072;DHT22;14613;46.308;25.288;2023-03-14T16:46:50;16.80;38.20
27072;DHT22;14613;46.308;25.288;2023-03-14T16:49:16;16.80;38.30
27072;DHT22;14613;46.308;25.288;2023-03-14T16:51:42;16.80;38.10
27072;DHT22;14613;46.308;25.288;2023-03-14T16:54:08;16.70;38.20
27072;DHT22;14613;46.308;25.288;2023-03-14T16:56:34;16.70;38.40
27072;DHT22;14613;46.308;25.288;2023-03-14T16:59:00;16.60;38.60
27072;DHT22;14613;46.308;25.288;2023-03-14T17:01:26;16.50;38.80